sensor_id;sensor_type;location;lat;lon;timestamp;P1;durP1;ratioP1;P2;durP2;ratioP2
5452;SDS011;2749;53.576;9.822;2023-03-14T00:00:09;4.70;;;2.97;;
5452;SDS011;2749;53.576;9.822;2023-03-14T00:02:36;4.37;;;3.40;;
5452;SDS011;2749;53.576;9.822;2023-03-14T00:05:02;3.10;;;2.63;;
5452;SDS011;2749;53.576;9.822;2023-03-14T00:07:31;5.00;;;3.13;;
5452;SDS011;2749;53.576;9.822;2023-03-14T00:09:59;3.63;;;2.67;;
5452;SDS011;2749;53.576;9.822;2023-03-14T00:12:25;2.63;;;2.43;;
5452;SDS011;2749;53.576;9.822;2023-03-14T00:14:51;5.53;;;3.20;;
5452;SDS011;2749;53.576;9.822;2023-03-14T00:17:17;6.33;;;4.60;;
5452;SDS011;2749;53.576;9.822;2023-03-14T00:19:43;5.03;;;2.97;;
5452;SDS011;2749;53.576;9.822;2023-03-14T00:22:09;3.93;;;3.40;;
5452;SDS011;2749;53.576;9.822;2023-03-14T00:24:35;11.33;;;4.10;;
5452;SDS011;2749;53.576;9.822;2023-03-14T00:27:01;10.80;;;4.30;;
5452;SDS011;2749;53.576;9.822;2023-03-14T00:29:27;4.20;;;3.13;;
5452;SDS011;2749;53.576;9.822;2023-03-14T00:31:53;7.13;;;4.40;;
5452;SDS011;2749;53.576;9.822;2023-03-14T00:34:19;6.77;;;4.50;;
5452;SDS011;2749;53.576;9.822;2023-03-14T00:36:45;3.03;;;2.73;;
5452;SDS011;2749;53.576;9.822;2023-03-14T00:39:10;7.50;;;3.50;;
5452;SDS011;2749;53.576;9.822;2023-03-14T00:41:36;4.27;;;2.90;;
5452;SDS011;2749;53.576;9.822;2023-03-14T00:44:02;10.23;;;3.10;;
5452;SDS011;2749;53.576;9.822;2023-03-14T00:46:28;14.53;;;3.83;;
5452;SDS011;2749;53.576;9.822;2023-03-14T00:48:54;5.40;;;3.30;;
5452;SDS011;2749;53.576;9.822;2023-03-14T00:51:20;7.37;;;3.43;;
5452;SDS011;2749;53.576;9.822;2023-03-14T00:53:46;11.43;;;3.73;;
5452;SDS011;2749;53.576;9.822;2023-03-14T00:56:13;6.30;;;2.70;;
5452;SDS011;2749;53.576;9.822;2023-03-14T00:58:39;5.80;;;3.10;;
5452;SDS011;2749;53.576;9.822;2023-03-14T01:01:06;5.57;;;2.70;;
5452;SDS011;2749;53.576;9.822;2023-03-14T01:03:32;5.80;;;3.50;;
5452;SDS011;2749;53.576;9.822;2023-03-14T01:06:14;8.53;;;3.70;;
5452;SDS011;2749;53.576;9.822;2023-03-14T01:08:40;7.27;;;4.00;;
5452;SDS011;2749;53.576;9.822;2023-03-14T01:11:07;6.43;;;3.30;;
5452;SDS011;2749;53.576;9.822;2023-03-14T01:13:33;4.90;;;2.33;;
5452;SDS011;2749;53.576;9.822;2023-03-14T01:16:03;3.30;;;2.63;;
5452;SDS011;2749;53.576;9.822;2023-03-14T01:18:30;6.10;;;2.87;;
5452;SDS011;2749;53.576;9.822;2023-03-14T01:20:56;8.17;;;2.70;;
5452;SDS011;2749;53.576;9.822;2023-03-14T01:23:22;7.50;;;3.60;;
5452;SDS011;2749;53.576;9.822;2023-03-14T01:25:48;9.77;;;4.67;;
5452;SDS011;2749;53.576;9.822;2023-03-14T01:28:14;7.40;;;3.17;;
5452;SDS011;2749;53.576;9.822;2023-03-14T01:30:40;4.70;;;2.73;;
5452;SDS011;2749;53.576;9.822;2023-03-14T01:33:06;6.07;;;3.70;;
5452;SDS011;2749;53.576;9.822;2023-03-14T01:35:32;10.30;;;3.10;;
5452;SDS011;2749;53.576;9.822;2023-03-14T01:37:58;5.50;;;2.37;;
5452;SDS011;2749;53.576;9.822;2023-03-14T01:40:24;3.90;;;2.50;;
5452;SDS011;2749;53.576;9.822;2023-03-14T01:42:54;4.70;;;2.50;;
5452;SDS011;2749;53.576;9.822;2023-03-14T01:48:05;5.17;;;2.80;;
5452;SDS011;2749;53.576;9.822;2023-03-14T01:50:31;4.00;;;2.87;;
5452;SDS011;2749;53.576;9.822;2023-03-14T01:52:57;4.33;;;2.80;;
5452;SDS011;2749;53.576;9.822;2023-03-14T01:55:23;8.60;;;5.27;;
5452;SDS011;2749;53.576;9.822;2023-03-14T01:57:51;4.47;;;2.90;;
5452;SDS011;2749;53.576;9.822;2023-03-14T02:00:19;10.50;;;2.97;;
5452;SDS011;2749;53.576;9.822;2023-03-14T02:02:47;10.37;;;3.27;;
5452;SDS011;2749;53.576;9.822;2023-03-14T02:05:16;12.13;;;3.40;;
5452;SDS011;2749;53.576;9.822;2023-03-14T02:07:47;6.30;;;3.47;;
5452;SDS011;2749;53.576;9.822;2023-03-14T02:10:14;9.30;;;3.30;;
5452;SDS011;2749;53.576;9.822;2023-03-14T02:12:43;6.03;;;3.30;;
5452;SDS011;2749;53.576;9.822;2023-03-14T02:15:09;6.73;;;3.40;;
5452;SDS011;2749;53.576;9.822;2023-03-14T02:17:35;3.70;;;2.77;;
5452;SDS011;2749;53.576;9.822;2023-03-14T02:22:30;12.27;;;3.37;;
5452;SDS011;2749;53.576;9.822;2023-03-14T02:25:03;9.93;;;4.37;;
5452;SDS011;2749;53.576;9.822;2023-03-14T02:27:31;7.90;;;3.33;;
5452;SDS011;2749;53.576;9.822;2023-03-14T02:29:59;11.80;;;4.00;;
5452;SDS011;2749;53.576;9.822;2023-03-14T02:32:26;6.60;;;3.37;;
5452;SDS011;2749;53.576;9.822;2023-03-14T02:34:54;9.00;;;3.13;;
5452;SDS011;2749;53.576;9.822;2023-03-14T02:37:21;6.00;;;2.53;;
5452;SDS011;2749;53.576;9.822;2023-03-14T02:39:48;5.10;;;3.57;;
5452;SDS011;2749;53.576;9.822;2023-03-14T02:42:14;8.50;;;3.57;;
5452;SDS011;2749;53.576;9.822;2023-03-14T02:44:48;4.40;;;3.50;;
5452;SDS011;2749;53.576;9.822;2023-03-14T02:47:14;5.63;;;3.80;;
5452;SDS011;2749;53.576;9.822;2023-03-14T02:49:40;11.93;;;4.07;;
5452;SDS011;2749;53.576;9.822;2023-03-14T02:52:06;6.30;;;3.33;;
5452;SDS011;2749;53.576;9.822;2023-03-14T02:54:32;5.63;;;4.13;;
5452;SDS011;2749;53.576;9.822;2023-03-14T02:56:58;5.10;;;4.10;;
5452;SDS011;2749;53.576;9.822;2023-03-14T02:59:24;9.20;;;4.67;;
5452;SDS011;2749;53.576;9.822;2023-03-14T03:01:49;5.00;;;3.97;;
5452;SDS011;2749;53.576;9.822;2023-03-14T03:04:15;7.90;;;4.60;;
5452;SDS011;2749;53.576;9.822;2023-03-14T03:06:41;4.93;;;3.30;;
5452;SDS011;2749;53.576;9.822;2023-03-14T03:09:07;9.30;;;4.13;;
5452;SDS011;2749;53.576;9.822;2023-03-14T03:11:33;6.73;;;2.90;;
5452;SDS011;2749;53.576;9.822;2023-03-14T03:14:00;4.80;;;3.00;;
5452;SDS011;2749;53.576;9.822;2023-03-14T03:16:26;9.30;;;3.87;;
5452;SDS011;2749;53.576;9.822;2023-03-14T03:18:51;7.37;;;4.00;;
5452;SDS011;2749;53.576;9.822;2023-03-14T03:21:17;7.20;;;4.40;;
5452;SDS011;2749;53.576;9.822;2023-03-14T03:23:48;11.13;;;3.40;;
5452;SDS011;2749;53.576;9.822;2023-03-14T03:26:14;10.07;;;4.47;;
5452;SDS011;2749;53.576;9.822;2023-03-14T03:28:39;3.67;;;3.23;;
5452;SDS011;2749;53.576;9.822;2023-03-14T03:31:06;5.63;;;3.10;;
5452;SDS011;2749;53.576;9.822;2023-03-14T03:33:32;3.73;;;3.10;;
5452;SDS011;2749;53.576;9.822;2023-03-14T03:35:58;3.87;;;3.40;;
5452;SDS011;2749;53.576;9.822;2023-03-14T03:38:24;6.17;;;3.07;;
5452;SDS011;2749;53.576;9.822;2023-03-14T03:40:50;8.70;;;4.20;;
5452;SDS011;2749;53.576;9.822;2023-03-14T03:43:16;4.10;;;3.70;;
5452;SDS011;2749;53.576;9.822;2023-03-14T03:45:43;8.03;;;3.20;;
5452;SDS011;2749;53.576;9.822;2023-03-14T03:48:09;6.57;;;3.17;;
5452;SDS011;2749;53.576;9.822;2023-03-14T03:50:35;10.03;;;3.90;;
5452;SDS011;2749;53.576;9.822;2023-03-14T03:53:00;13.33;;;3.50;;
5452;SDS011;2749;53.576;9.822;2023-03-14T03:55:26;4.03;;;3.40;;
5452;SDS011;2749;53.576;9.822;2023-03-14T03:57:53;4.47;;;2.60;;
5452;SDS011;2749;53.576;9.822;2023-03-14T04:00:19;9.00;;;3.60;;
5452;SDS011;2749;53.576;9.822;2023-03-14T04:02:45;7.97;;;4.50;;
5452;SDS011;2749;53.576;9.822;2023-03-14T04:05:11;7.60;;;3.37;;
5452;SDS011;2749;53.576;9.822;2023-03-14T04:07:37;6.30;;;3.73;;
5452;SDS011;2749;53.576;9.822;2023-03-14T04:10:03;5.83;;;4.00;;
5452;SDS011;2749;53.576;9.822;2023-03-14T04:12:29;7.93;;;3.00;;
5452;SDS011;2749;53.576;9.822;2023-03-14T04:14:55;9.20;;;3.83;;
5452;SDS011;2749;53.576;9.822;2023-03-14T04:17:20;4.03;;;2.90;;
5452;SDS011;2749;53.576;9.822;2023-03-14T04:19:46;4.40;;;3.10;;
5452;SDS011;2749;53.576;9.822;2023-03-14T04:22:15;3.60;;;3.30;;
5452;SDS011;2749;53.576;9.822;2023-03-14T04:24:41;7.67;;;3.13;;
5452;SDS011;2749;53.576;9.822;2023-03-14T04:27:07;9.30;;;3.70;;
5452;SDS011;2749;53.576;9.822;2023-03-14T04:29:33;11.00;;;4.00;;
5452;SDS011;2749;53.576;9.822;2023-03-14T04:31:59;7.73;;;4.30;;
5452;SDS011;2749;53.576;9.822;2023-03-14T04:34:25;5.70;;;4.20;;
5452;SDS011;2749;53.576;9.822;2023-03-14T04:36:51;4.50;;;4.10;;
5452;SDS011;2749;53.576;9.822;2023-03-14T04:39:17;4.43;;;4.00;;
5452;SDS011;2749;53.576;9.822;2023-03-14T04:41:43;9.10;;;4.20;;
5452;SDS011;2749;53.576;9.822;2023-03-14T04:44:10;5.63;;;4.57;;
5452;SDS011;2749;53.576;9.822;2023-03-14T04:46:35;2.83;;;1.53;;
5452;SDS011;2749;53.576;9.822;2023-03-14T04:49:01;4.77;;;1.93;;
5452;SDS011;2749;53.576;9.822;2023-03-14T04:51:27;3.03;;;1.57;;
5452;SDS011;2749;53.576;9.822;2023-03-14T04:53:53;2.57;;;1.40;;
5452;SDS011;2749;53.576;9.822;2023-03-14T04:56:20;3.67;;;1.50;;
5452;SDS011;2749;53.576;9.822;2023-03-14T04:58:45;1.90;;;1.60;;
5452;SDS011;2749;53.576;9.822;2023-03-14T05:01:11;2.50;;;1.60;;
5452;SDS011;2749;53.576;9.822;2023-03-14T05:03:37;11.83;;;2.07;;
5452;SDS011;2749;53.576;9.822;2023-03-14T05:06:04;1.90;;;1.17;;
5452;SDS011;2749;53.576;9.822;2023-03-14T05:08:30;5.57;;;2.80;;
5452;SDS011;2749;53.576;9.822;2023-03-14T05:10:56;3.80;;;1.53;;
5452;SDS011;2749;53.576;9.822;2023-03-14T05:13:23;5.00;;;1.93;;
5452;SDS011;2749;53.576;9.822;2023-03-14T05:15:49;4.37;;;1.70;;
5452;SDS011;2749;53.576;9.822;2023-03-14T05:18:20;6.17;;;2.23;;
5452;SDS011;2749;53.576;9.822;2023-03-14T05:20:46;6.00;;;3.00;;
5452;SDS011;2749;53.576;9.822;2023-03-14T05:23:12;4.73;;;2.57;;
5452;SDS011;2749;53.576;9.822;2023-03-14T05:25:38;4.40;;;2.90;;
5452;SDS011;2749;53.576;9.822;2023-03-14T05:28:04;2.40;;;2.20;;
5452;SDS011;2749;53.576;9.822;2023-03-14T05:30:30;6.47;;;3.47;;
5452;SDS011;2749;53.576;9.822;2023-03-14T05:32:57;5.30;;;3.77;;
5452;SDS011;2749;53.576;9.822;2023-03-14T05:35:24;3.57;;;3.27;;
5452;SDS011;2749;53.576;9.822;2023-03-14T05:37:50;6.90;;;3.93;;
5452;SDS011;2749;53.576;9.822;2023-03-14T05:40:15;4.57;;;4.13;;
5452;SDS011;2749;53.576;9.822;2023-03-14T05:42:41;5.90;;;4.17;;
5452;SDS011;2749;53.576;9.822;2023-03-14T05:45:07;8.13;;;5.40;;
5452;SDS011;2749;53.576;9.822;2023-03-14T05:47:33;6.40;;;4.47;;
5452;SDS011;2749;53.576;9.822;2023-03-14T05:49:59;8.73;;;4.80;;
5452;SDS011;2749;53.576;9.822;2023-03-14T05:52:25;7.00;;;5.30;;
5452;SDS011;2749;53.576;9.822;2023-03-14T05:54:51;6.40;;;5.77;;
5452;SDS011;2749;53.576;9.822;2023-03-14T05:57:17;10.70;;;6.40;;
5452;SDS011;2749;53.576;9.822;2023-03-14T05:59:43;11.40;;;6.07;;
5452;SDS011;2749;53.576;9.822;2023-03-14T06:02:09;8.00;;;6.43;;
5452;SDS011;2749;53.576;9.822;2023-03-14T06:04:35;10.40;;;6.77;;
5452;SDS011;2749;53.576;9.822;2023-03-14T06:07:01;8.90;;;6.50;;
5452;SDS011;2749;53.576;9.822;2023-03-14T06:09:26;8.50;;;5.97;;
5452;SDS011;2749;53.576;9.822;2023-03-14T06:11:52;10.97;;;7.40;;
5452;SDS011;2749;53.576;9.822;2023-03-14T06:14:18;10.77;;;7.63;;
5452;SDS011;2749;53.576;9.822;2023-03-14T06:16:44;14.73;;;7.80;;
5452;SDS011;2749;53.576;9.822;2023-03-14T06:19:12;9.30;;;7.03;;
5452;SDS011;2749;53.576;9.822;2023-03-14T06:21:38;12.23;;;6.50;;
5452;SDS011;2749;53.576;9.822;2023-03-14T06:24:04;10.43;;;6.87;;
5452;SDS011;2749;53.576;9.822;2023-03-14T06:26:30;10.80;;;6.87;;
5452;SDS011;2749;53.576;9.822;2023-03-14T06:28:56;17.83;;;8.90;;
5452;SDS011;2749;53.576;9.822;2023-03-14T06:31:26;11.20;;;7.33;;
5452;SDS011;2749;53.576;9.822;2023-03-14T06:33:52;9.47;;;7.13;;
5452;SDS011;2749;53.576;9.822;2023-03-14T06:36:17;17.20;;;8.77;;
5452;SDS011;2749;53.576;9.822;2023-03-14T06:38:43;12.17;;;7.57;;
5452;SDS011;2749;53.576;9.822;2023-03-14T06:41:09;14.00;;;6.80;;
5452;SDS011;2749;53.576;9.822;2023-03-14T06:43:35;13.03;;;9.87;;
5452;SDS011;2749;53.576;9.822;2023-03-14T06:46:01;12.97;;;7.23;;
5452;SDS011;2749;53.576;9.822;2023-03-14T06:48:27;9.20;;;7.20;;
5452;SDS011;2749;53.576;9.822;2023-03-14T06:50:53;11.40;;;7.30;;
5452;SDS011;2749;53.576;9.822;2023-03-14T06:53:19;13.87;;;7.00;;
5452;SDS011;2749;53.576;9.822;2023-03-14T06:55:45;16.07;;;6.60;;
5452;SDS011;2749;53.576;9.822;2023-03-14T06:58:11;11.03;;;5.87;;
5452;SDS011;2749;53.576;9.822;2023-03-14T07:00:37;6.27;;;5.20;;
5452;SDS011;2749;53.576;9.822;2023-03-14T07:03:03;14.73;;;4.87;;
5452;SDS011;2749;53.576;9.822;2023-03-14T07:05:28;10.17;;;3.10;;
5452;SDS011;2749;53.576;9.822;2023-03-14T07:07:55;8.90;;;3.90;;
5452;SDS011;2749;53.576;9.822;2023-03-14T07:10:21;7.67;;;4.43;;
5452;SDS011;2749;53.576;9.822;2023-03-14T07:12:47;7.53;;;3.63;;
5452;SDS011;2749;53.576;9.822;2023-03-14T07:15:12;6.77;;;3.90;;
5452;SDS011;2749;53.576;9.822;2023-03-14T07:17:38;4.53;;;3.17;;
5452;SDS011;2749;53.576;9.822;2023-03-14T07:20:05;6.70;;;3.27;;
5452;SDS011;2749;53.576;9.822;2023-03-14T07:22:31;5.73;;;3.07;;
5452;SDS011;2749;53.576;9.822;2023-03-14T07:24:57;5.93;;;2.57;;
5452;SDS011;2749;53.576;9.822;2023-03-14T07:27:23;6.30;;;2.57;;
5452;SDS011;2749;53.576;9.822;2023-03-14T07:29:49;10.90;;;2.43;;
5452;SDS011;2749;53.576;9.822;2023-03-14T07:32:15;5.17;;;2.00;;
5452;SDS011;2749;53.576;9.822;2023-03-14T07:34:41;6.00;;;2.70;;
5452;SDS011;2749;53.576;9.822;2023-03-14T07:37:07;2.40;;;2.20;;
5452;SDS011;2749;53.576;9.822;2023-03-14T07:39:33;9.20;;;2.60;;
5452;SDS011;2749;53.576;9.822;2023-03-14T07:41:59;11.30;;;2.97;;
5452;SDS011;2749;53.576;9.822;2023-03-14T07:44:26;5.20;;;2.63;;
5452;SDS011;2749;53.576;9.822;2023-03-14T07:46:52;4.93;;;2.50;;
5452;SDS011;2749;53.576;9.822;2023-03-14T07:49:18;3.60;;;2.23;;
5452;SDS011;2749;53.576;9.822;2023-03-14T07:51:46;3.90;;;3.00;;
5452;SDS011;2749;53.576;9.822;2023-03-14T07:54:13;4.07;;;2.67;;
5452;SDS011;2749;53.576;9.822;2023-03-14T07:56:38;8.60;;;3.27;;
5452;SDS011;2749;53.576;9.822;2023-03-14T07:59:04;7.67;;;3.63;;
5452;SDS011;2749;53.576;9.822;2023-03-14T08:01:30;5.83;;;2.90;;
5452;SDS011;2749;53.576;9.822;2023-03-14T08:03:56;9.97;;;3.70;;
5452;SDS011;2749;53.576;9.822;2023-03-14T08:06:22;5.90;;;2.73;;
5452;SDS011;2749;53.576;9.822;2023-03-14T08:08:48;4.77;;;2.33;;
5452;SDS011;2749;53.576;9.822;2023-03-14T08:11:14;3.73;;;2.20;;
5452;SDS011;2749;53.576;9.822;2023-03-14T08:13:40;4.13;;;2.27;;
5452;SDS011;2749;53.576;9.822;2023-03-14T08:16:06;4.63;;;1.97;;
5452;SDS011;2749;53.576;9.822;2023-03-14T08:18:32;2.07;;;1.87;;
5452;SDS011;2749;53.576;9.822;2023-03-14T08:20:58;3.77;;;1.83;;
5452;SDS011;2749;53.576;9.822;2023-03-14T08:23:24;5.83;;;2.17;;
5452;SDS011;2749;53.576;9.822;2023-03-14T08:25:50;3.50;;;2.50;;
5452;SDS011;2749;53.576;9.822;2023-03-14T08:28:16;3.27;;;2.20;;
5452;SDS011;2749;53.576;9.822;2023-03-14T08:30:42;4.17;;;2.73;;
5452;SDS011;2749;53.576;9.822;2023-03-14T08:33:08;3.20;;;1.97;;
5452;SDS011;2749;53.576;9.822;2023-03-14T08:35:34;3.57;;;1.77;;
5452;SDS011;2749;53.576;9.822;2023-03-14T08:38:00;3.70;;;2.07;;
5452;SDS011;2749;53.576;9.822;2023-03-14T08:40:26;5.20;;;2.27;;
5452;SDS011;2749;53.576;9.822;2023-03-14T08:42:52;2.43;;;2.00;;
5452;SDS011;2749;53.576;9.822;2023-03-14T08:45:18;1.90;;;1.57;;
5452;SDS011;2749;53.576;9.822;2023-03-14T08:47:44;6.57;;;2.80;;
5452;SDS011;2749;53.576;9.822;2023-03-14T08:50:10;4.30;;;2.80;;
5452;SDS011;2749;53.576;9.822;2023-03-14T08:52:36;19.67;;;5.00;;
5452;SDS011;2749;53.576;9.822;2023-03-14T08:55:05;5.77;;;3.30;;
5452;SDS011;2749;53.576;9.822;2023-03-14T08:57:31;5.83;;;3.40;;
5452;SDS011;2749;53.576;9.822;2023-03-14T08:59:57;4.23;;;3.17;;
5452;SDS011;2749;53.576;9.822;2023-03-14T09:02:23;4.70;;;3.20;;
5452;SDS011;2749;53.576;9.822;2023-03-14T09:04:50;5.80;;;3.57;;
5452;SDS011;2749;53.576;9.822;2023-03-14T09:07:16;10.03;;;3.50;;
5452;SDS011;2749;53.576;9.822;2023-03-14T09:09:42;3.90;;;3.50;;
5452;SDS011;2749;53.576;9.822;2023-03-14T09:12:08;5.93;;;3.80;;
5452;SDS011;2749;53.576;9.822;2023-03-14T09:14:34;7.73;;;4.33;;
5452;SDS011;2749;53.576;9.822;2023-03-14T09:17:00;11.47;;;3.97;;
5452;SDS011;2749;53.576;9.822;2023-03-14T09:19:26;7.47;;;3.70;;
5452;SDS011;2749;53.576;9.822;2023-03-14T09:21:51;5.00;;;4.40;;
5452;SDS011;2749;53.576;9.822;2023-03-14T09:24:17;4.13;;;3.70;;
5452;SDS011;2749;53.576;9.822;2023-03-14T09:26:43;6.53;;;4.17;;
5452;SDS011;2749;53.576;9.822;2023-03-14T09:29:09;6.67;;;3.70;;
5452;SDS011;2749;53.576;9.822;2023-03-14T09:31:35;4.60;;;4.20;;
5452;SDS011;2749;53.576;9.822;2023-03-14T09:34:01;7.63;;;3.90;;
5452;SDS011;2749;53.576;9.822;2023-03-14T09:36:27;8.63;;;4.33;;
5452;SDS011;2749;53.576;9.822;2023-03-14T09:38:53;6.80;;;3.77;;
5452;SDS011;2749;53.576;9.822;2023-03-14T09:41:29;9.83;;;4.37;;
5452;SDS011;2749;53.576;9.822;2023-03-14T09:44:08;3.83;;;1.20;;
5452;SDS011;2749;53.576;9.822;2023-03-14T09:46:36;1.83;;;1.57;;
5452;SDS011;2749;53.576;9.822;2023-03-14T09:49:07;8.23;;;1.73;;
5452;SDS011;2749;53.576;9.822;2023-03-14T09:51:35;2.73;;;1.10;;
5452;SDS011;2749;53.576;9.822;2023-03-14T09:54:02;3.67;;;1.47;;
5452;SDS011;2749;53.576;9.822;2023-03-14T09:56:29;3.93;;;2.00;;
5452;SDS011;2749;53.576;9.822;2023-03-14T09:59:00;2.40;;;2.20;;
5452;SDS011;2749;53.576;9.822;2023-03-14T10:01:29;3.70;;;2.50;;
5452;SDS011;2749;53.576;9.822;2023-03-14T10:03:56;3.00;;;2.80;;
5452;SDS011;2749;53.576;9.822;2023-03-14T10:06:24;1.80;;;1.70;;
5452;SDS011;2749;53.576;9.822;2023-03-14T10:08:50;2.60;;;1.70;;
5452;SDS011;2749;53.576;9.822;2023-03-14T10:11:17;4.00;;;1.10;;
5452;SDS011;2749;53.576;9.822;2023-03-14T10:13:48;4.50;;;1.37;;
5452;SDS011;2749;53.576;9.822;2023-03-14T10:16:14;1.47;;;1.20;;
5452;SDS011;2749;53.576;9.822;2023-03-14T10:18:43;1.47;;;1.10;;
5452;SDS011;2749;53.576;9.822;2023-03-14T10:21:28;1.60;;;1.00;;
5452;SDS011;2749;53.576;9.822;2023-03-14T10:24:06;1.87;;;1.00;;
5452;SDS011;2749;53.576;9.822;2023-03-14T10:26:33;1.67;;;1.10;;
5452;SDS011;2749;53.576;9.822;2023-03-14T10:29:03;1.27;;;1.00;;
5452;SDS011;2749;53.576;9.822;2023-03-14T10:31:47;2.17;;;0.97;;
5452;SDS011;2749;53.576;9.822;2023-03-14T10:34:17;0.97;;;0.80;;
5452;SDS011;2749;53.576;9.822;2023-03-14T10:36:46;2.00;;;1.30;;
5452;SDS011;2749;53.576;9.822;2023-03-14T10:41:47;3.37;;;0.80;;
5452;SDS011;2749;53.576;9.822;2023-03-14T10:44:20;3.13;;;0.90;;
5452;SDS011;2749;53.576;9.822;2023-03-14T10:46:47;0.80;;;0.57;;
5452;SDS011;2749;53.576;9.822;2023-03-14T10:49:31;7.63;;;2.20;;
5452;SDS011;2749;53.576;9.822;2023-03-14T10:52:01;0.80;;;0.70;;
5452;SDS011;2749;53.576;9.822;2023-03-14T10:54:29;1.50;;;1.10;;
5452;SDS011;2749;53.576;9.822;2023-03-14T10:56:55;1.37;;;0.80;;
5452;SDS011;2749;53.576;9.822;2023-03-14T10:59:22;0.80;;;0.60;;
5452;SDS011;2749;53.576;9.822;2023-03-14T11:01:50;1.33;;;0.60;;
5452;SDS011;2749;53.576;9.822;2023-03-14T11:06:44;1.33;;;0.60;;
5452;SDS011;2749;53.576;9.822;2023-03-14T11:09:21;1.37;;;0.60;;
5452;SDS011;2749;53.576;9.822;2023-03-14T11:11:49;1.30;;;0.90;;
5452;SDS011;2749;53.576;9.822;2023-03-14T11:14:29;4.30;;;1.83;;
5452;SDS011;2749;53.576;9.822;2023-03-14T11:19:48;1.63;;;0.70;;
5452;SDS011;2749;53.576;9.822;2023-03-14T11:22:30;1.90;;;1.40;;
5452;SDS011;2749;53.576;9.822;2023-03-14T11:25:11;1.80;;;0.73;;
5452;SDS011;2749;53.576;9.822;2023-03-14T11:27:48;1.27;;;0.70;;
5452;SDS011;2749;53.576;9.822;2023-03-14T11:35:16;4.23;;;1.00;;
5452;SDS011;2749;53.576;9.822;2023-03-14T11:37:47;0.80;;;0.70;;
5452;SDS011;2749;53.576;9.822;2023-03-14T11:40:21;3.97;;;1.13;;
5452;SDS011;2749;53.576;9.822;2023-03-14T11:42:49;1.63;;;1.47;;
5452;SDS011;2749;53.576;9.822;2023-03-14T11:45:18;2.60;;;1.10;;
5452;SDS011;2749;53.576;9.822;2023-03-14T11:47:44;1.77;;;1.03;;
5452;SDS011;2749;53.576;9.822;2023-03-14T11:50:21;5.70;;;1.53;;
5452;SDS011;2749;53.576;9.822;2023-03-14T11:55:44;4.63;;;1.37;;
5452;SDS011;2749;53.576;9.822;2023-03-14T11:58:15;1.60;;;1.23;;
5452;SDS011;2749;53.576;9.822;2023-03-14T12:00:42;4.43;;;1.07;;
5452;SDS011;2749;53.576;9.822;2023-03-14T12:03:14;2.87;;;1.17;;
5452;SDS011;2749;53.576;9.822;2023-03-14T12:11:01;6.40;;;1.40;;
5452;SDS011;2749;53.576;9.822;2023-03-14T12:13:28;4.73;;;1.37;;
5452;SDS011;2749;53.576;9.822;2023-03-14T12:15:56;6.07;;;1.57;;
5452;SDS011;2749;53.576;9.822;2023-03-14T12:18:29;3.03;;;1.53;;
5452;SDS011;2749;53.576;9.822;2023-03-14T12:20:57;4.40;;;1.70;;
5452;SDS011;2749;53.576;9.822;2023-03-14T12:23:24;4.50;;;1.53;;
5452;SDS011;2749;53.576;9.822;2023-03-14T12:26:06;2.63;;;1.73;;
5452;SDS011;2749;53.576;9.822;2023-03-14T12:28:33;7.20;;;3.30;;
5452;SDS011;2749;53.576;9.822;2023-03-14T12:31:35;6.20;;;2.00;;
5452;SDS011;2749;53.576;9.822;2023-03-14T12:34:00;6.50;;;1.77;;
5452;SDS011;2749;53.576;9.822;2023-03-14T12:36:45;5.00;;;2.20;;
5452;SDS011;2749;53.576;9.822;2023-03-14T12:41:44;7.67;;;2.13;;
5452;SDS011;2749;53.576;9.822;2023-03-14T12:49:41;7.23;;;1.93;;
5452;SDS011;2749;53.576;9.822;2023-03-14T12:52:12;15.20;;;2.73;;
5452;SDS011;2749;53.576;9.822;2023-03-14T12:57:23;12.47;;;2.27;;
5452;SDS011;2749;53.576;9.822;2023-03-14T12:59:51;12.03;;;3.10;;
5452;SDS011;2749;53.576;9.822;2023-03-14T13:02:37;20.50;;;3.47;;
5452;SDS011;2749;53.576;9.822;2023-03-14T13:05:12;11.13;;;2.90;;
5452;SDS011;2749;53.576;9.822;2023-03-14T13:08:01;14.70;;;2.60;;
5452;SDS011;2749;53.576;9.822;2023-03-14T13:12:53;7.33;;;2.67;;
5452;SDS011;2749;53.576;9.822;2023-03-14T13:15:24;11.53;;;2.33;;
5452;SDS011;2749;53.576;9.822;2023-03-14T13:17:51;7.80;;;2.80;;
5452;SDS011;2749;53.576;9.822;2023-03-14T13:20:21;7.17;;;2.50;;
5452;SDS011;2749;53.576;9.822;2023-03-14T13:22:48;8.73;;;2.03;;
5452;SDS011;2749;53.576;9.822;2023-03-14T13:25:15;21.17;;;2.03;;
5452;SDS011;2749;53.576;9.822;2023-03-14T13:27:43;5.70;;;2.03;;
5452;SDS011;2749;53.576;9.822;2023-03-14T13:30:16;4.93;;;1.63;;
5452;SDS011;2749;53.576;9.822;2023-03-14T13:32:43;7.30;;;2.03;;
5452;SDS011;2749;53.576;9.822;2023-03-14T13:35:23;4.87;;;1.37;;
5452;SDS011;2749;53.576;9.822;2023-03-14T13:37:59;10.63;;;2.07;;
5452;SDS011;2749;53.576;9.822;2023-03-14T13:40:32;10.73;;;2.23;;
5452;SDS011;2749;53.576;9.822;2023-03-14T13:42:59;4.97;;;1.50;;
5452;SDS011;2749;53.576;9.822;2023-03-14T13:45:26;11.77;;;2.23;;
5452;SDS011;2749;53.576;9.822;2023-03-14T13:47:52;3.80;;;1.30;;
5452;SDS011;2749;53.576;9.822;2023-03-14T13:50:18;3.60;;;1.67;;
5452;SDS011;2749;53.576;9.822;2023-03-14T13:52:44;8.73;;;2.03;;
5452;SDS011;2749;53.576;9.822;2023-03-14T13:55:15;10.53;;;2.30;;
5452;SDS011;2749;53.576;9.822;2023-03-14T13:57:48;4.50;;;1.80;;
5452;SDS011;2749;53.576;9.822;2023-03-14T14:00:20;9.67;;;2.93;;
5452;SDS011;2749;53.576;9.822;2023-03-14T14:02:46;4.43;;;1.60;;
5452;SDS011;2749;53.576;9.822;2023-03-14T14:05:13;8.00;;;1.40;;
5452;SDS011;2749;53.576;9.822;2023-03-14T14:07:39;3.27;;;1.30;;
5452;SDS011;2749;53.576;9.822;2023-03-14T14:10:06;11.53;;;1.93;;
5452;SDS011;2749;53.576;9.822;2023-03-14T14:12:36;4.83;;;1.90;;
5452;SDS011;2749;53.576;9.822;2023-03-14T14:15:06;4.30;;;1.67;;
5452;SDS011;2749;53.576;9.822;2023-03-14T14:17:35;4.03;;;1.80;;
5452;SDS011;2749;53.576;9.822;2023-03-14T14:20:02;7.90;;;1.93;;
5452;SDS011;2749;53.576;9.822;2023-03-14T14:22:30;7.83;;;2.10;;
5452;SDS011;2749;53.576;9.822;2023-03-14T14:24:56;5.60;;;2.40;;
5452;SDS011;2749;53.576;9.822;2023-03-14T14:27:28;14.20;;;2.07;;
5452;SDS011;2749;53.576;9.822;2023-03-14T14:30:03;8.97;;;2.43;;
5452;SDS011;2749;53.576;9.822;2023-03-14T14:32:39;4.97;;;1.33;;
5452;SDS011;2749;53.576;9.822;2023-03-14T14:35:06;5.50;;;1.53;;
5452;SDS011;2749;53.576;9.822;2023-03-14T14:37:40;4.73;;;1.30;;
5452;SDS011;2749;53.576;9.822;2023-03-14T14:40:08;10.40;;;1.73;;
5452;SDS011;2749;53.576;9.822;2023-03-14T14:42:35;3.80;;;2.13;;
5452;SDS011;2749;53.576;9.822;2023-03-14T14:45:04;4.67;;;1.70;;
5452;SDS011;2749;53.576;9.822;2023-03-14T14:47:32;7.57;;;1.67;;
5452;SDS011;2749;53.576;9.822;2023-03-14T14:49:59;8.23;;;1.90;;
5452;SDS011;2749;53.576;9.822;2023-03-14T14:52:42;3.37;;;1.67;;
5452;SDS011;2749;53.576;9.822;2023-03-14T14:55:12;4.20;;;2.00;;
5452;SDS011;2749;53.576;9.822;2023-03-14T14:57:40;10.97;;;3.70;;
5452;SDS011;2749;53.576;9.822;2023-03-14T15:00:07;1.63;;;1.20;;
5452;SDS011;2749;53.576;9.822;2023-03-14T15:02:38;11.67;;;3.50;;
5452;SDS011;2749;53.576;9.822;2023-03-14T15:05:12;5.77;;;2.00;;
5452;SDS011;2749;53.576;9.822;2023-03-14T15:07:39;8.53;;;1.80;;
5452;SDS011;2749;53.576;9.822;2023-03-14T15:10:05;8.17;;;2.60;;
5452;SDS011;2749;53.576;9.822;2023-03-14T15:12:31;5.53;;;1.97;;
5452;SDS011;2749;53.576;9.822;2023-03-14T15:14:57;6.40;;;3.07;;
5452;SDS011;2749;53.576;9.822;2023-03-14T15:17:23;7.13;;;2.53;;
5452;SDS011;2749;53.576;9.822;2023-03-14T15:19:49;11.60;;;2.50;;
5452;SDS011;2749;53.576;9.822;2023-03-14T15:22:15;9.90;;;2.13;;
5452;SDS011;2749;53.576;9.822;2023-03-14T15:24:41;3.10;;;2.07;;
5452;SDS011;2749;53.576;9.822;2023-03-14T15:27:14;4.27;;;1.73;;
5452;SDS011;2749;53.576;9.822;2023-03-14T15:29:40;9.83;;;2.80;;
5452;SDS011;2749;53.576;9.822;2023-03-14T15:32:09;10.33;;;2.10;;
5452;SDS011;2749;53.576;9.822;2023-03-14T15:34:37;6.53;;;1.80;;
5452;SDS011;2749;53.576;9.822;2023-03-14T15:37:03;6.33;;;2.17;;
5452;SDS011;2749;53.576;9.822;2023-03-14T15:39:32;12.90;;;3.40;;
5452;SDS011;2749;53.576;9.822;2023-03-14T15:41:58;4.33;;;2.23;;
5452;SDS011;2749;53.576;9.822;2023-03-14T15:44:24;5.57;;;1.70;;
5452;SDS011;2749;53.576;9.822;2023-03-14T15:46:50;6.33;;;1.53;;
5452;SDS011;2749;53.576;9.822;2023-03-14T15:49:16;4.13;;;1.60;;
5452;SDS011;2749;53.576;9.822;2023-03-14T15:51:42;9.03;;;2.07;;
5452;SDS011;2749;53.576;9.822;2023-03-14T15:54:08;6.20;;;1.40;;